Aérodrome :
LOGIN :

S'inscrire | Disclaimer

   EN    FR    IT 

 










Légende :    VFR   VFR Marginal   IFR   IFR Intensif   IFR Très Intensif
Visi : 
Plafond : 
>= 8 km
>= 3000ft
5 à 8 km
1000 à 3000 ft
1500m à 5 km
500 à 1000 ft
800 à 1500m
200 à 500 ft
< 800m
< 200 ft
Symboles :   Orages  Brouillard  Fortes neiges  Fortes précipitations  Vent > 20 kt
SIGMETs :   Divers  Orages  Givrage  Turbulence  Onde Orograph.  Cendres Volcan.







- Altitude de l'aérodrome : 408 ft
- Code IATA : FKB


EDSB - Karlsruhe Baden Baden

DERNIER METAR :
  • 190920Z VRB02KT 9999 SCT023 21/15 Q1018

METARs EXPIRÉS :
  • 190850Z 26003KT 190V350 9999 SCT030 21/16 Q1018
  • 190820Z 24003KT 190V280 9999 SCT017 20/16 Q1017
  • 190750Z 28003KT 200V350 9999 BKN018 20/16 Q1017
  • 190720Z VRB02KT 9999 SCT017 20/16 Q1017
  • 190650Z VRB02KT 9999 FEW017 20/16 Q1017

TAF TAF EDSB
Valide du 19 à 06h jusqu'au 20 à 06h UTC


190500Z 1906/2006 28005KT 9999 SCT040
BECMG 1917/1919 VRB03KT
Pas de NOTAMs connus pour ce terrain.



MET'MAP, la Météo Aéronautique d'un coup d'oeil ! - Copyright ORBIFLY Décembre 2007 - Disclaimer

ORBIFLY MET'MAP TEAM :

Programmation & Développement : Alexandra Zaïnal
Conception & Développement : Baudouin d'Aumeries
Co-Programmation & Développement : Marc-Olivier Méhu
Soutien technique & logistique : Manuel Goepfert

Contact : metmap@orbifly.com




SOURCES & CREDITS :

   NOAA